40.0°F
Current conditions from King Hill
Updated every 5 minutes
 
  Friday October 24, 2014

Station Historical Data
Daily Summary for January 26, 2012 Units:  Both    English   Metric
« Previous Day
Next Day »
Daily Weekly Monthly Yearly Custom
  High: Low: Average:
Temperature: 32.1 °F /  0.1 °C 16.4 °F /  -8.7 °C 25.5 °F /  -3.6 °C
Dew Point: 26.5 °F /  -3.1 °C 12.2 °F /  -11 °C 18.5 °F /  -7.5 °C
Humidity: 92% 57% 75%
Wind Speed: 6.0mph /  9.7km/h - 2.1mph /  3.4km/h
Wind Gust: 14.0mph /  22.5km/h - -
Wind- - SSE
Pressure: 30.22 in /  1023.2 hPa 29.83 in /  1010 hPa -
Precipitation: 0.00 in /  0 mm    
Historical Graphs
 
 
Tabular Data for January 26, 2012
Time Temperature Dew Point Pressure Wind Wind Speed Wind Gust Humidity Daily Rainfall
00:04 22.4 °F /  -5.3 °C 16.6 °F /  -8.6 °C 30.20in /  1022.6hPa Calm   2.0mph /  3.2km/h 78% 0.00in /  0mm
00:09 22.4 °F /  -5.3 °C 16.3 °F /  -8.7 °C 30.20in /  1022.6hPa Calm     77% 0.00in /  0mm
00:15 22.4 °F /  -5.3 °C 16.3 °F /  -8.7 °C 30.19in /  1022.2hPa Calm     77% 0.00in /  0mm
00:24 22.5 °F /  -5.3 °C 16.1 °F /  -8.8 °C 30.19in /  1022.2hPa Calm   1.0mph /  1.6km/h 76% 0.00in /  0mm
00:30 22.5 °F /  -5.3 °C 16.1 °F /  -8.8 °C 30.19in /  1022.2hPa Calm   1.0mph /  1.6km/h 76% 0.00in /  0mm
00:35 22.5 °F /  -5.3 °C 15.8 °F /  -9 °C 30.18in /  1021.9hPa Calm     75% 0.00in /  0mm
00:44 22.6 °F /  -5.2 °C 15.9 °F /  -8.9 °C 30.18in /  1021.9hPa Calm     75% 0.00in /  0mm
00:49 22.6 °F /  -5.2 °C 15.9 °F /  -8.9 °C 30.18in /  1021.9hPa Calm   1.0mph /  1.6km/h 75% 0.00in /  0mm
00:54 22.6 °F /  -5.2 °C 15.9 °F /  -8.9 °C 30.18in /  1021.9hPa Calm   1.0mph /  1.6km/h 75% 0.00in /  0mm
00:59 22.5 °F /  -5.3 °C 15.8 °F /  -9 °C 30.18in /  1021.9hPa Calm     75% 0.00in /  0mm
01:04 22.5 °F /  -5.3 °C 15.8 °F /  -9 °C 30.18in /  1021.9hPa Calm     75% 0.00in /  0mm
01:09 22.5 °F /  -5.3 °C 15.8 °F /  -9 °C 30.18in /  1021.9hPa Calm     75% 0.00in /  0mm
01:14 22.4 °F /  -5.3 °C 16.0 °F /  -8.9 °C 30.18in /  1021.9hPa Calm     76% 0.00in /  0mm
01:19 22.3 °F /  -5.4 °C 15.6 °F /  -9.1 °C 30.18in /  1021.9hPa Calm   1.0mph /  1.6km/h 75% 0.00in /  0mm
01:24 22.3 °F /  -5.4 °C 15.9 °F /  -8.9 °C 30.19in /  1022.2hPa Calm   1.0mph /  1.6km/h 76% 0.00in /  0mm
01:29 22.2 °F /  -5.4 °C 15.8 °F /  -9 °C 30.19in /  1022.2hPa Calm     76% 0.00in /  0mm
01:34 22.1 °F /  -5.5 °C 15.7 °F /  -9.1 °C 30.18in /  1021.9hPa Calm     76% 0.00in /  0mm
01:39 22.0 °F /  -5.6 °C 15.6 °F /  -9.1 °C 30.18in /  1021.9hPa Calm     76% 0.00in /  0mm
01:44 21.9 °F /  -5.6 °C 15.8 °F /  -9 °C 30.18in /  1021.9hPa Calm     77% 0.00in /  0mm
01:49 21.8 °F /  -5.7 °C 16.0 °F /  -8.9 °C 30.19in /  1022.2hPa Calm     78% 0.00in /  0mm
01:54 21.7 °F /  -5.7 °C 15.9 °F /  -8.9 °C 30.19in /  1022.2hPa Calm     78% 0.00in /  0mm
01:59 21.5 °F /  -5.8 °C 15.7 °F /  -9.1 °C 30.19in /  1022.2hPa Calm     78% 0.00in /  0mm
02:04 21.3 °F /  -5.9 °C 15.5 °F /  -9.2 °C 30.19in /  1022.2hPa Calm     78% 0.00in /  0mm
02:09 21.1 °F /  -6.1 °C 15.3 °F /  -9.3 °C 30.19in /  1022.2hPa Calm     78% 0.00in /  0mm
02:14 20.8 °F /  -6.2 °C 15.3 °F /  -9.3 °C 30.19in /  1022.2hPa Calm     79% 0.00in /  0mm
02:19 20.6 °F /  -6.3 °C 15.1 °F /  -9.4 °C 30.19in /  1022.2hPa Calm     79% 0.00in /  0mm
02:24 20.4 °F /  -6.4 °C 14.9 °F /  -9.5 °C 30.19in /  1022.2hPa Calm     79% 0.00in /  0mm
02:29 20.1 °F /  -6.6 °C 14.6 °F /  -9.7 °C 30.19in /  1022.2hPa Calm     79% 0.00in /  0mm
02:34 19.8 °F /  -6.8 °C 14.6 °F /  -9.7 °C 30.19in /  1022.2hPa Calm     80% 0.00in /  0mm
02:39 19.7 °F /  -6.8 °C 14.5 °F /  -9.7 °C 30.19in /  1022.2hPa Calm     80% 0.00in /  0mm
02:44 19.1 °F /  -7.2 °C 13.9 °F /  -10.1 °C 30.19in /  1022.2hPa Calm     80% 0.00in /  0mm
02:49 18.7 °F /  -7.4 °C 13.6 °F /  -10.2 °C 30.19in /  1022.2hPa Calm     80% 0.00in /  0mm
02:54 18.5 °F /  -7.5 °C 13.6 °F /  -10.2 °C 30.19in /  1022.2hPa Calm     81% 0.00in /  0mm
02:59 18.3 °F /  -7.6 °C 13.5 °F /  -10.3 °C 30.19in /  1022.2hPa Calm     81% 0.00in /  0mm
03:04 18.1 °F /  -7.7 °C 13.3 °F /  -10.4 °C 30.19in /  1022.2hPa Calm     81% 0.00in /  0mm
03:09 18.0 °F /  -7.8 °C 13.4 °F /  -10.3 °C 30.19in /  1022.2hPa Calm     82% 0.00in /  0mm
03:14 17.8 °F /  -7.9 °C 13.2 °F /  -10.4 °C 30.19in /  1022.2hPa Calm     82% 0.00in /  0mm
03:19 17.8 °F /  -7.9 °C 13.2 °F /  -10.4 °C 30.19in /  1022.2hPa Calm     82% 0.00in /  0mm
03:24 17.9 °F /  -7.8 °C 13.6 °F /  -10.2 °C 30.19in /  1022.2hPa Calm   1.0mph /  1.6km/h 83% 0.00in /  0mm
03:30 18.1 °F /  -7.7 °C 14.1 °F /  -9.9 °C 30.19in /  1022.2hPa Calm   1.0mph /  1.6km/h 84% 0.00in /  0mm
03:34 18.2 °F /  -7.7 °C 14.2 °F /  -9.9 °C 30.19in /  1022.2hPa Calm     84% 0.00in /  0mm
03:39 18.1 °F /  -7.7 °C 14.1 °F /  -9.9 °C 30.19in /  1022.2hPa Calm     84% 0.00in /  0mm
03:44 18.0 °F /  -7.8 °C 14.0 °F /  -10 °C 30.19in /  1022.2hPa Calm     84% 0.00in /  0mm
03:49 17.8 °F /  -7.9 °C 13.8 °F /  -10.1 °C 30.18in /  1021.9hPa Calm     84% 0.00in /  0mm
03:54 17.5 °F /  -8.1 °C 13.5 °F /  -10.3 °C 30.19in /  1022.2hPa Calm     84% 0.00in /  0mm
03:59 17.2 °F /  -8.2 °C 13.2 °F /  -10.4 °C 30.19in /  1022.2hPa Calm   1.0mph /  1.6km/h 84% 0.00in /  0mm
04:04 17.0 °F /  -8.3 °C 13.0 °F /  -10.6 °C 30.19in /  1022.2hPa Calm   2.0mph /  3.2km/h 84% 0.00in /  0mm
04:09 16.7 °F /  -8.5 °C 12.7 °F /  -10.7 °C 30.19in /  1022.2hPa Calm   2.0mph /  3.2km/h 84% 0.00in /  0mm
04:14 16.4 °F /  -8.7 °C 14.5 °F /  -9.7 °C 30.19in /  1022.2hPa Calm   2.0mph /  3.2km/h 92% 0.00in /  0mm
04:19 16.4 °F /  -8.7 °C 12.4 °F /  -10.9 °C 30.20in /  1022.6hPa Calm   2.0mph /  3.2km/h 84% 0.00in /  0mm
04:24 16.7 °F /  -8.5 °C 13.0 °F /  -10.6 °C 30.20in /  1022.6hPa Calm   2.0mph /  3.2km/h 85% 0.00in /  0mm
04:29 17.1 °F /  -8.3 °C 13.4 °F /  -10.3 °C 30.19in /  1022.2hPa Calm   2.0mph /  3.2km/h 85% 0.00in /  0mm
04:34 17.4 °F /  -8.1 °C 13.7 °F /  -10.2 °C 30.20in /  1022.6hPa Calm   2.0mph /  3.2km/h 85% 0.00in /  0mm
04:39 17.7 °F /  -7.9 °C 13.7 °F /  -10.2 °C 30.20in /  1022.6hPa NE 1.0mph /  1.6km/h 3.0mph /  4.8km/h 84% 0.00in /  0mm
04:44 17.9 °F /  -7.8 °C 13.6 °F /  -10.2 °C 30.19in /  1022.2hPa Calm   3.0mph /  4.8km/h 83% 0.00in /  0mm
04:49 18.0 °F /  -7.8 °C 13.4 °F /  -10.3 °C 30.20in /  1022.6hPa NE 1.0mph /  1.6km/h 3.0mph /  4.8km/h 82% 0.00in /  0mm
04:54 18.1 °F /  -7.7 °C 13.3 °F /  -10.4 °C 30.20in /  1022.6hPa NE 1.0mph /  1.6km/h 3.0mph /  4.8km/h 81% 0.00in /  0mm
04:59 18.5 °F /  -7.5 °C 13.4 °F /  -10.3 °C 30.21in /  1022.9hPa NE 2.0mph /  3.2km/h 4.0mph /  6.4km/h 80% 0.00in /  0mm
05:04 18.6 °F /  -7.4 °C 13.2 °F /  -10.4 °C 30.21in /  1022.9hPa Calm   4.0mph /  6.4km/h 79% 0.00in /  0mm
05:09 18.5 °F /  -7.5 °C 12.8 °F /  -10.7 °C 30.21in /  1022.9hPa Calm   3.0mph /  4.8km/h 78% 0.00in /  0mm
05:14 18.5 °F /  -7.5 °C 12.8 °F /  -10.7 °C 30.21in /  1022.9hPa Calm   3.0mph /  4.8km/h 78% 0.00in /  0mm
05:19 18.4 °F /  -7.6 °C 12.7 °F /  -10.7 °C 30.21in /  1022.9hPa Calm   3.0mph /  4.8km/h 78% 0.00in /  0mm
05:24 18.4 °F /  -7.6 °C 12.7 °F /  -10.7 °C 30.20in /  1022.6hPa Calm   2.0mph /  3.2km/h 78% 0.00in /  0mm
05:29 18.2 °F /  -7.7 °C 12.5 °F /  -10.8 °C 30.21in /  1022.9hPa Calm   2.0mph /  3.2km/h 78% 0.00in /  0mm
05:34 18.2 °F /  -7.7 °C 12.5 °F /  -10.8 °C 30.21in /  1022.9hPa NE 1.0mph /  1.6km/h 2.0mph /  3.2km/h 78% 0.00in /  0mm
05:39 18.4 °F /  -7.6 °C 12.7 °F /  -10.7 °C 30.21in /  1022.9hPa Calm   2.0mph /  3.2km/h 78% 0.00in /  0mm
05:44 18.6 °F /  -7.4 °C 12.9 °F /  -10.6 °C 30.21in /  1022.9hPa Calm   2.0mph /  3.2km/h 78% 0.00in /  0mm
05:49 18.8 °F /  -7.3 °C 13.1 °F /  -10.5 °C 30.21in /  1022.9hPa Calm   1.0mph /  1.6km/h 78% 0.00in /  0mm
05:54 19.0 °F /  -7.2 °C 13.0 °F /  -10.6 °C 30.21in /  1022.9hPa Calm   1.0mph /  1.6km/h 77% 0.00in /  0mm
05:59 19.1 °F /  -7.2 °C 13.1 °F /  -10.5 °C 30.21in /  1022.9hPa Calm   2.0mph /  3.2km/h 77% 0.00in /  0mm
06:04 19.2 °F /  -7.1 °C 12.9 °F /  -10.6 °C 30.21in /  1022.9hPa Calm   2.0mph /  3.2km/h 76% 0.00in /  0mm
06:09 19.3 °F /  -7.1 °C 13.0 °F /  -10.6 °C 30.21in /  1022.9hPa Calm   2.0mph /  3.2km/h 76% 0.00in /  0mm
06:14 19.4 °F /  -7 °C 13.1 °F /  -10.5 °C 30.21in /  1022.9hPa Calm     76% 0.00in /  0mm
06:19 19.3 °F /  -7.1 °C 13.0 °F /  -10.6 °C 30.21in /  1022.9hPa Calm     76% 0.00in /  0mm
06:24 19.1 °F /  -7.2 °C 12.8 °F /  -10.7 °C 30.21in /  1022.9hPa Calm     76% 0.00in /  0mm
06:30 18.8 °F /  -7.3 °C 12.8 °F /  -10.7 °C 30.21in /  1022.9hPa Calm     77% 0.00in /  0mm
06:39 19.0 °F /  -7.2 °C 13.3 °F /  -10.4 °C 30.22in /  1023.2hPa Calm   2.0mph /  3.2km/h 78% 0.00in /  0mm
06:44 18.9 °F /  -7.3 °C 13.2 °F /  -10.4 °C 30.22in /  1023.2hPa Calm     78% 0.00in /  0mm
06:50 18.9 °F /  -7.3 °C 13.5 °F /  -10.3 °C 30.21in /  1022.9hPa Calm     79% 0.00in /  0mm
06:59 18.6 °F /  -7.4 °C 13.2 °F /  -10.4 °C 30.21in /  1022.9hPa Calm     79% 0.00in /  0mm
07:04 18.4 °F /  -7.6 °C 13.3 °F /  -10.4 °C 30.21in /  1022.9hPa Calm   1.0mph /  1.6km/h 80% 0.00in /  0mm
07:09 18.0 °F /  -7.8 °C 12.9 °F /  -10.6 °C 30.22in /  1023.2hPa Calm   1.0mph /  1.6km/h 80% 0.00in /  0mm
07:14 17.7 °F /  -7.9 °C 12.6 °F /  -10.8 °C 30.22in /  1023.2hPa Calm     80% 0.00in /  0mm
07:19 17.5 °F /  -8.1 °C 12.7 °F /  -10.7 °C 30.22in /  1023.2hPa NE 1.0mph /  1.6km/h 2.0mph /  3.2km/h 81% 0.00in /  0mm
07:24 17.8 °F /  -7.9 °C 13.0 °F /  -10.6 °C 30.22in /  1023.2hPa Calm   2.0mph /  3.2km/h 81% 0.00in /  0mm
07:30 17.9 °F /  -7.8 °C 13.1 °F /  -10.5 °C 30.22in /  1023.2hPa Calm   2.0mph /  3.2km/h 81% 0.00in /  0mm
07:39 17.1 °F /  -8.3 °C 12.3 °F /  -10.9 °C 30.21in /  1022.9hPa Calm     81% 0.00in /  0mm
07:44 17.0 °F /  -8.3 °C 12.2 °F /  -11 °C 30.21in /  1022.9hPa Calm     81% 0.00in /  0mm
07:49 17.0 °F /  -8.3 °C 12.5 °F /  -10.8 °C 30.21in /  1022.9hPa Calm     82% 0.00in /  0mm
07:54 17.1 °F /  -8.3 °C 12.6 °F /  -10.8 °C 30.21in /  1022.9hPa Calm     82% 0.00in /  0mm
07:59 17.2 °F /  -8.2 °C 12.7 °F /  -10.7 °C 30.21in /  1022.9hPa Calm     82% 0.00in /  0mm
08:04 17.1 °F /  -8.3 °C 12.6 °F /  -10.8 °C 30.22in /  1023.2hPa Calm     82% 0.00in /  0mm
08:09 17.0 °F /  -8.3 °C 12.5 °F /  -10.8 °C 30.21in /  1022.9hPa Calm     82% 0.00in /  0mm
08:14 17.0 °F /  -8.3 °C 12.7 °F /  -10.7 °C 30.22in /  1023.2hPa Calm     83% 0.00in /  0mm
08:19 17.1 °F /  -8.3 °C 12.8 °F /  -10.7 °C 30.21in /  1022.9hPa Calm     83% 0.00in /  0mm
08:24 17.4 °F /  -8.1 °C 13.1 °F /  -10.5 °C 30.22in /  1023.2hPa Calm     83% 0.00in /  0mm
08:29 17.6 °F /  -8 °C 13.3 °F /  -10.4 °C 30.21in /  1022.9hPa Calm     83% 0.00in /  0mm
08:35 17.9 °F /  -7.8 °C 13.6 °F /  -10.2 °C 30.21in /  1022.9hPa Calm     83% 0.00in /  0mm
08:44 18.5 °F /  -7.5 °C 14.2 °F /  -9.9 °C 30.21in /  1022.9hPa Calm   1.0mph /  1.6km/h 83% 0.00in /  0mm
08:49 19.0 °F /  -7.2 °C 14.7 °F /  -9.6 °C 30.21in /  1022.9hPa Calm   2.0mph /  3.2km/h 83% 0.00in /  0mm
08:54 19.7 °F /  -6.8 °C 15.4 °F /  -9.2 °C 30.20in /  1022.6hPa NE 1.0mph /  1.6km/h 3.0mph /  4.8km/h 83% 0.00in /  0mm
08:59 20.2 °F /  -6.6 °C 15.6 °F /  -9.1 °C 30.21in /  1022.9hPa Calm   3.0mph /  4.8km/h 82% 0.00in /  0mm
09:04 20.6 °F /  -6.3 °C 15.7 °F /  -9.1 °C 30.21in /  1022.9hPa Calm   2.0mph /  3.2km/h 81% 0.00in /  0mm
09:09 21.1 °F /  -6.1 °C 15.9 °F /  -8.9 °C 30.21in /  1022.9hPa NE 2.0mph /  3.2km/h 4.0mph /  6.4km/h 80% 0.00in /  0mm
09:14 21.8 °F /  -5.7 °C 16.3 °F /  -8.7 °C 30.21in /  1022.9hPa Calm   4.0mph /  6.4km/h 79% 0.00in /  0mm
09:19 22.5 °F /  -5.3 °C 16.7 °F /  -8.5 °C 30.21in /  1022.9hPa Calm   3.0mph /  4.8km/h 78% 0.00in /  0mm
09:25 23.2 °F /  -4.9 °C 17.1 °F /  -8.3 °C 30.21in /  1022.9hPa Calm   2.0mph /  3.2km/h 77% 0.00in /  0mm
09:34 24.0 °F /  -4.4 °C 17.2 °F /  -8.2 °C 30.21in /  1022.9hPa Calm   3.0mph /  4.8km/h 75% 0.00in /  0mm
09:40 24.2 °F /  -4.3 °C 17.4 °F /  -8.1 °C 30.20in /  1022.6hPa Calm   3.0mph /  4.8km/h 75% 0.00in /  0mm
09:49 24.6 °F /  -4.1 °C 17.2 °F /  -8.2 °C 30.20in /  1022.6hPa Calm     73% 0.00in /  0mm
09:54 24.7 °F /  -4.1 °C 17.6 °F /  -8 °C 30.21in /  1022.9hPa Calm     74% 0.00in /  0mm
09:59 24.9 °F /  -3.9 °C 17.8 °F /  -7.9 °C 30.21in /  1022.9hPa Calm   1.0mph /  1.6km/h 74% 0.00in /  0mm
10:04 25.3 °F /  -3.7 °C 18.2 °F /  -7.7 °C 30.21in /  1022.9hPa Calm   2.0mph /  3.2km/h 74% 0.00in /  0mm
10:09 25.9 °F /  -3.4 °C 18.4 °F /  -7.6 °C 30.21in /  1022.9hPa NE 1.0mph /  1.6km/h 3.0mph /  4.8km/h 73% 0.00in /  0mm
10:14 26.5 °F /  -3.1 °C 19.0 °F /  -7.2 °C 30.21in /  1022.9hPa Calm   3.0mph /  4.8km/h 73% 0.00in /  0mm
10:19 26.9 °F /  -2.8 °C 19.1 °F /  -7.2 °C 30.21in /  1022.9hPa NE 1.0mph /  1.6km/h 3.0mph /  4.8km/h 72% 0.00in /  0mm
10:24 27.7 °F /  -2.4 °C 19.9 °F /  -6.7 °C 30.21in /  1022.9hPa Calm   3.0mph /  4.8km/h 72% 0.00in /  0mm
10:29 28.1 °F /  -2.2 °C 19.6 °F /  -6.9 °C 30.21in /  1022.9hPa Calm   1.0mph /  1.6km/h 70% 0.00in /  0mm
10:34 28.6 °F /  -1.9 °C 20.1 °F /  -6.6 °C 30.21in /  1022.9hPa Calm   2.0mph /  3.2km/h 70% 0.00in /  0mm
10:39 29.1 °F /  -1.6 °C 20.2 °F /  -6.6 °C 30.21in /  1022.9hPa NE 1.0mph /  1.6km/h 2.0mph /  3.2km/h 69% 0.00in /  0mm
10:44 29.6 °F /  -1.3 °C 20.3 °F /  -6.5 °C 30.21in /  1022.9hPa Calm   1.0mph /  1.6km/h 68% 0.00in /  0mm
10:49 30.1 °F /  -1.1 °C 20.5 °F /  -6.4 °C 30.21in /  1022.9hPa NE 1.0mph /  1.6km/h 3.0mph /  4.8km/h 67% 0.00in /  0mm
10:54 30.1 °F /  -1.1 °C 20.1 °F /  -6.6 °C 30.21in /  1022.9hPa NE 1.0mph /  1.6km/h 3.0mph /  4.8km/h 66% 0.00in /  0mm
10:59 30.1 °F /  -1.1 °C 20.5 °F /  -6.4 °C 30.21in /  1022.9hPa NE 1.0mph /  1.6km/h 3.0mph /  4.8km/h 67% 0.00in /  0mm
11:04 30.0 °F /  -1.1 °C 20.0 °F /  -6.7 °C 30.21in /  1022.9hPa Calm   3.0mph /  4.8km/h 66% 0.00in /  0mm
11:09 30.1 °F /  -1.1 °C 20.1 °F /  -6.6 °C 30.21in /  1022.9hPa Calm   2.0mph /  3.2km/h 66% 0.00in /  0mm
11:14 30.3 °F /  -0.9 °C 19.9 °F /  -6.7 °C 30.21in /  1022.9hPa Calm     65% 0.00in /  0mm
11:19 30.3 °F /  -0.9 °C 19.2 °F /  -7.1 °C 30.20in /  1022.6hPa Calm   3.0mph /  4.8km/h 63% 0.00in /  0mm
11:24 30.2 °F /  -1 °C 19.9 °F /  -6.7 °C 30.20in /  1022.6hPa Calm   3.0mph /  4.8km/h 65% 0.00in /  0mm
11:29 29.8 °F /  -1.2 °C 19.5 °F /  -6.9 °C 30.20in /  1022.6hPa Calm   4.0mph /  6.4km/h 65% 0.00in /  0mm
11:34 29.8 °F /  -1.2 °C 20.2 °F /  -6.6 °C 30.20in /  1022.6hPa NE 1.0mph /  1.6km/h 4.0mph /  6.4km/h 67% 0.00in /  0mm
11:39 30.0 °F /  -1.1 °C 20.4 °F /  -6.4 °C 30.19in /  1022.2hPa Calm   2.0mph /  3.2km/h 67% 0.00in /  0mm
11:44 30.0 °F /  -1.1 °C 20.0 °F /  -6.7 °C 30.19in /  1022.2hPa Calm   3.0mph /  4.8km/h 66% 0.00in /  0mm
11:49 30.0 °F /  -1.1 °C 19.7 °F /  -6.8 °C 30.19in /  1022.2hPa NE 1.0mph /  1.6km/h 3.0mph /  4.8km/h 65% 0.00in /  0mm
11:54 29.7 °F /  -1.3 °C 19.7 °F /  -6.8 °C 30.18in /  1021.9hPa Calm   2.0mph /  3.2km/h 66% 0.00in /  0mm
11:59 29.9 °F /  -1.2 °C 19.9 °F /  -6.7 °C 30.18in /  1021.9hPa Calm   2.0mph /  3.2km/h 66% 0.00in /  0mm
12:04 29.8 °F /  -1.2 °C 19.5 °F /  -6.9 °C 30.17in /  1021.6hPa Calm   2.0mph /  3.2km/h 65% 0.00in /  0mm
12:09 29.7 °F /  -1.3 °C 19.7 °F /  -6.8 °C 30.17in /  1021.6hPa Calm   2.0mph /  3.2km/h 66% 0.00in /  0mm
12:14 29.9 °F /  -1.2 °C 19.9 °F /  -6.7 °C 30.17in /  1021.6hPa NE 2.0mph /  3.2km/h 3.0mph /  4.8km/h 66% 0.00in /  0mm
12:19 30.0 °F /  -1.1 °C 19.7 °F /  -6.8 °C 30.16in /  1021.2hPa Calm   3.0mph /  4.8km/h 65% 0.00in /  0mm
12:24 30.3 °F /  -0.9 °C 19.9 °F /  -6.7 °C 30.15in /  1020.9hPa Calm   3.0mph /  4.8km/h 65% 0.00in /  0mm
12:29 30.9 °F /  -0.6 °C 20.2 °F /  -6.6 °C 30.15in /  1020.9hPa Calm   3.0mph /  4.8km/h 64% 0.00in /  0mm
12:34 31.5 °F /  -0.3 °C 20.4 °F /  -6.4 °C 30.14in /  1020.5hPa Calm     63% 0.00in /  0mm
12:39 31.7 °F /  -0.2 °C 20.2 °F /  -6.6 °C 30.14in /  1020.5hPa NE 2.0mph /  3.2km/h 3.0mph /  4.8km/h 62% 0.00in /  0mm
12:44 31.4 °F /  -0.3 °C 20.3 °F /  -6.5 °C 30.13in /  1020.2hPa NE 1.0mph /  1.6km/h 3.0mph /  4.8km/h 63% 0.00in /  0mm
12:49 31.3 °F /  -0.4 °C 19.4 °F /  -7 °C 30.12in /  1019.9hPa NE 1.0mph /  1.6km/h 5.0mph /  8km/h 61% 0.00in /  0mm
12:54 31.5 °F /  -0.3 °C 19.6 °F /  -6.9 °C 30.12in /  1019.9hPa NE 1.0mph /  1.6km/h 5.0mph /  8km/h 61% 0.00in /  0mm
12:59 31.4 °F /  -0.3 °C 19.5 °F /  -6.9 °C 30.11in /  1019.5hPa SSE 2.0mph /  3.2km/h 5.0mph /  8km/h 61% 0.00in /  0mm
13:04 31.6 °F /  -0.2 °C 20.1 °F /  -6.6 °C 30.11in /  1019.5hPa South 1.0mph /  1.6km/h 5.0mph /  8km/h 62% 0.00in /  0mm
13:09 31.5 °F /  -0.3 °C 20.0 °F /  -6.7 °C 30.10in /  1019.2hPa SSW 3.0mph /  4.8km/h 5.0mph /  8km/h 62% 0.00in /  0mm
13:14 31.2 °F /  -0.4 °C 19.3 °F /  -7.1 °C 30.09in /  1018.8hPa SSW 3.0mph /  4.8km/h 5.0mph /  8km/h 61% 0.00in /  0mm
13:19 31.2 °F /  -0.4 °C 19.7 °F /  -6.8 °C 30.09in /  1018.8hPa Calm   4.0mph /  6.4km/h 62% 0.00in /  0mm
13:24 31.5 °F /  -0.3 °C 20.0 °F /  -6.7 °C 30.09in /  1018.8hPa SSW 1.0mph /  1.6km/h 2.0mph /  3.2km/h 62% 0.00in /  0mm
13:29 31.9 °F /  -0.1 °C 20.0 °F /  -6.7 °C 30.09in /  1018.8hPa SSW 1.0mph /  1.6km/h 3.0mph /  4.8km/h 61% 0.00in /  0mm
13:34 31.6 °F /  -0.2 °C 19.3 °F /  -7.1 °C 30.08in /  1018.5hPa SSW 1.0mph /  1.6km/h 3.0mph /  4.8km/h 60% 0.00in /  0mm
13:39 31.6 °F /  -0.2 °C 19.3 °F /  -7.1 °C 30.08in /  1018.5hPa SSW 3.0mph /  4.8km/h 6.0mph /  9.7km/h 60% 0.00in /  0mm
13:44 31.3 °F /  -0.4 °C 19.4 °F /  -7 °C 30.08in /  1018.5hPa Calm   6.0mph /  9.7km/h 61% 0.00in /  0mm
13:49 31.3 °F /  -0.4 °C 19.4 °F /  -7 °C 30.08in /  1018.5hPa SSW 1.0mph /  1.6km/h 4.0mph /  6.4km/h 61% 0.00in /  0mm
13:54 31.4 °F /  -0.3 °C 19.5 °F /  -6.9 °C 30.08in /  1018.5hPa Calm   4.0mph /  6.4km/h 61% 0.00in /  0mm
13:59 31.8 °F /  -0.1 °C 19.9 °F /  -6.7 °C 30.08in /  1018.5hPa SSW 1.0mph /  1.6km/h 4.0mph /  6.4km/h 61% 0.00in /  0mm
14:04 31.7 °F /  -0.2 °C 19.4 °F /  -7 °C 30.07in /  1018.2hPa SSW 1.0mph /  1.6km/h 4.0mph /  6.4km/h 60% 0.00in /  0mm
14:09 31.5 °F /  -0.3 °C 18.8 °F /  -7.3 °C 30.07in /  1018.2hPa SSW 1.0mph /  1.6km/h 4.0mph /  6.4km/h 59% 0.00in /  0mm
14:14 31.5 °F /  -0.3 °C 18.8 °F /  -7.3 °C 30.07in /  1018.2hPa SSW 1.0mph /  1.6km/h 4.0mph /  6.4km/h 59% 0.00in /  0mm
14:19 31.8 °F /  -0.1 °C 18.7 °F /  -7.4 °C 30.07in /  1018.2hPa SSW 1.0mph /  1.6km/h 4.0mph /  6.4km/h 58% 0.00in /  0mm
14:24 32.0 °F /  0 °C 18.9 °F /  -7.3 °C 30.07in /  1018.2hPa Calm   3.0mph /  4.8km/h 58% 0.00in /  0mm
14:29 32.1 °F /  0.1 °C 18.6 °F /  -7.4 °C 30.07in /  1018.2hPa SSW 2.0mph /  3.2km/h 3.0mph /  4.8km/h 57% 0.00in /  0mm
14:34 31.9 °F /  -0.1 °C 18.4 °F /  -7.6 °C 30.06in /  1017.8hPa Calm   3.0mph /  4.8km/h 57% 0.00in /  0mm
14:39 31.7 °F /  -0.2 °C 18.2 °F /  -7.7 °C 30.06in /  1017.8hPa Calm   2.0mph /  3.2km/h 57% 0.00in /  0mm
14:44 31.6 °F /  -0.2 °C 18.5 °F /  -7.5 °C 30.05in /  1017.5hPa Calm   2.0mph /  3.2km/h 58% 0.00in /  0mm
14:49 31.7 °F /  -0.2 °C 18.6 °F /  -7.4 °C 30.05in /  1017.5hPa SSW 1.0mph /  1.6km/h 3.0mph /  4.8km/h 58% 0.00in /  0mm
14:54 31.6 °F /  -0.2 °C 18.5 °F /  -7.5 °C 30.04in /  1017.2hPa Calm   3.0mph /  4.8km/h 58% 0.00in /  0mm
14:59 31.6 °F /  -0.2 °C 18.5 °F /  -7.5 °C 30.05in /  1017.5hPa Calm   2.0mph /  3.2km/h 58% 0.00in /  0mm
15:04 31.7 °F /  -0.2 °C 18.2 °F /  -7.7 °C 30.05in /  1017.5hPa Calm   2.0mph /  3.2km/h 57% 0.00in /  0mm
15:09 31.7 °F /  -0.2 °C 18.2 °F /  -7.7 °C 30.05in /  1017.5hPa Calm   1.0mph /  1.6km/h 57% 0.00in /  0mm
15:14 31.8 °F /  -0.1 °C 18.7 °F /  -7.4 °C 30.05in /  1017.5hPa Calm     58% 0.00in /  0mm
15:19 31.8 °F /  -0.1 °C 18.7 °F /  -7.4 °C 30.05in /  1017.5hPa Calm     58% 0.00in /  0mm
15:24 31.7 °F /  -0.2 °C 18.6 °F /  -7.4 °C 30.06in /  1017.8hPa Calm     58% 0.00in /  0mm
15:29 31.6 °F /  -0.2 °C 18.5 °F /  -7.5 °C 30.06in /  1017.8hPa Calm     58% 0.00in /  0mm
15:34 31.6 °F /  -0.2 °C 18.9 °F /  -7.3 °C 30.05in /  1017.5hPa Calm     59% 0.00in /  0mm
15:39 31.6 °F /  -0.2 °C 18.9 °F /  -7.3 °C 30.05in /  1017.5hPa Calm     59% 0.00in /  0mm
15:44 31.5 °F /  -0.3 °C 19.2 °F /  -7.1 °C 30.05in /  1017.5hPa Calm     60% 0.00in /  0mm
15:49 31.3 °F /  -0.4 °C 19.8 °F /  -6.8 °C 30.05in /  1017.5hPa SSW 3.0mph /  4.8km/h 6.0mph /  9.7km/h 62% 0.00in /  0mm
15:54 30.6 °F /  -0.8 °C 19.9 °F /  -6.7 °C 30.05in /  1017.5hPa SSW 2.0mph /  3.2km/h 6.0mph /  9.7km/h 64% 0.00in /  0mm
15:59 29.9 °F /  -1.2 °C 19.9 °F /  -6.7 °C 30.05in /  1017.5hPa SSW 1.0mph /  1.6km/h 5.0mph /  8km/h 66% 0.00in /  0mm
16:04 29.6 °F /  -1.3 °C 20.0 °F /  -6.7 °C 30.04in /  1017.2hPa SSW 1.0mph /  1.6km/h 4.0mph /  6.4km/h 67% 0.00in /  0mm
16:09 29.4 °F /  -1.4 °C 20.1 °F /  -6.6 °C 30.05in /  1017.5hPa Calm   2.0mph /  3.2km/h 68% 0.00in /  0mm
16:14 29.1 °F /  -1.6 °C 19.9 °F /  -6.7 °C 30.05in /  1017.5hPa Calm   3.0mph /  4.8km/h 68% 0.00in /  0mm
16:19 29.0 °F /  -1.7 °C 19.8 °F /  -6.8 °C 30.05in /  1017.5hPa Calm   3.0mph /  4.8km/h 68% 0.00in /  0mm
16:24 28.8 °F /  -1.8 °C 19.6 °F /  -6.9 °C 30.05in /  1017.5hPa Calm     68% 0.00in /  0mm
16:29 28.8 °F /  -1.8 °C 19.6 °F /  -6.9 °C 30.04in /  1017.2hPa Calm     68% 0.00in /  0mm
16:40 28.6 °F /  -1.9 °C 19.7 °F /  -6.8 °C 30.03in /  1016.8hPa Calm     69% 0.00in /  0mm
16:49 28.4 °F /  -2 °C 19.9 °F /  -6.7 °C 30.03in /  1016.8hPa Calm     70% 0.00in /  0mm
16:54 28.3 °F /  -2.1 °C 19.8 °F /  -6.8 °C 30.02in /  1016.5hPa Calm     70% 0.00in /  0mm
16:59 28.3 °F /  -2.1 °C 19.8 °F /  -6.8 °C 30.03in /  1016.8hPa Calm     70% 0.00in /  0mm
17:04 28.3 °F /  -2.1 °C 19.8 °F /  -6.8 °C 30.02in /  1016.5hPa Calm     70% 0.00in /  0mm
17:09 28.2 °F /  -2.1 °C 19.7 °F /  -6.8 °C 30.01in /  1016.1hPa Calm     70% 0.00in /  0mm
17:14 28.1 °F /  -2.2 °C 19.6 °F /  -6.9 °C 30.01in /  1016.1hPa Calm     70% 0.00in /  0mm
17:19 28.1 °F /  -2.2 °C 19.9 °F /  -6.7 °C 30.01in /  1016.1hPa Calm   1.0mph /  1.6km/h 71% 0.00in /  0mm
17:24 28.0 °F /  -2.2 °C 19.5 °F /  -6.9 °C 30.02in /  1016.5hPa Calm   1.0mph /  1.6km/h 70% 0.00in /  0mm
17:29 28.0 °F /  -2.2 °C 19.8 °F /  -6.8 °C 30.01in /  1016.1hPa Calm     71% 0.00in /  0mm
17:34 28.0 °F /  -2.2 °C 19.8 °F /  -6.8 °C 30.00in /  1015.8hPa Calm     71% 0.00in /  0mm
17:39 27.9 °F /  -2.3 °C 19.4 °F /  -7 °C 30.00in /  1015.8hPa Calm     70% 0.00in /  0mm
17:44 27.9 °F /  -2.3 °C 19.7 °F /  -6.8 °C 29.99in /  1015.5hPa Calm     71% 0.00in /  0mm
17:49 27.9 °F /  -2.3 °C 19.7 °F /  -6.8 °C 29.99in /  1015.5hPa Calm     71% 0.00in /  0mm
17:54 27.9 °F /  -2.3 °C 20.0 °F /  -6.7 °C 29.99in /  1015.5hPa Calm     72% 0.00in /  0mm
17:59 27.9 °F /  -2.3 °C 20.0 °F /  -6.7 °C 29.99in /  1015.5hPa Calm     72% 0.00in /  0mm
18:04 27.9 °F /  -2.3 °C 19.7 °F /  -6.8 °C 29.99in /  1015.5hPa Calm     71% 0.00in /  0mm
18:09 27.9 °F /  -2.3 °C 20.0 °F /  -6.7 °C 29.99in /  1015.5hPa Calm     72% 0.00in /  0mm
18:14 28.0 °F /  -2.2 °C 20.1 °F /  -6.6 °C 29.99in /  1015.5hPa Calm     72% 0.00in /  0mm
18:19 28.0 °F /  -2.2 °C 20.1 °F /  -6.6 °C 29.99in /  1015.5hPa Calm     72% 0.00in /  0mm
18:24 28.1 °F /  -2.2 °C 20.2 °F /  -6.6 °C 29.99in /  1015.5hPa Calm     72% 0.00in /  0mm
18:29 28.1 °F /  -2.2 °C 20.2 °F /  -6.6 °C 29.99in /  1015.5hPa Calm   2.0mph /  3.2km/h 72% 0.00in /  0mm
18:34 28.2 °F /  -2.1 °C 20.7 °F /  -6.3 °C 29.99in /  1015.5hPa Calm   2.0mph /  3.2km/h 73% 0.00in /  0mm
18:39 28.3 °F /  -2.1 °C 20.8 °F /  -6.2 °C 30.00in /  1015.8hPa SSW 1.0mph /  1.6km/h 2.0mph /  3.2km/h 73% 0.00in /  0mm
18:44 28.4 °F /  -2 °C 20.5 °F /  -6.4 °C 30.00in /  1015.8hPa Calm   2.0mph /  3.2km/h 72% 0.00in /  0mm
18:50 28.5 °F /  -1.9 °C 20.6 °F /  -6.3 °C 30.00in /  1015.8hPa SSW 1.0mph /  1.6km/h 3.0mph /  4.8km/h 72% 0.00in /  0mm
18:59 28.5 °F /  -1.9 °C 20.6 °F /  -6.3 °C 30.00in /  1015.8hPa Calm   1.0mph /  1.6km/h 72% 0.00in /  0mm
19:04 28.6 °F /  -1.9 °C 20.7 °F /  -6.3 °C 30.00in /  1015.8hPa Calm   1.0mph /  1.6km/h 72% 0.00in /  0mm
19:09 28.6 °F /  -1.9 °C 21.0 °F /  -6.1 °C 30.00in /  1015.8hPa Calm   2.0mph /  3.2km/h 73% 0.00in /  0mm
19:14 28.6 °F /  -1.9 °C 21.0 °F /  -6.1 °C 30.00in /  1015.8hPa Calm   2.0mph /  3.2km/h 73% 0.00in /  0mm
19:19 28.5 °F /  -1.9 °C 21.6 °F /  -5.8 °C 29.99in /  1015.5hPa SSW 2.0mph /  3.2km/h 3.0mph /  4.8km/h 75% 0.00in /  0mm
19:24 28.4 °F /  -2 °C 21.8 °F /  -5.7 °C 29.99in /  1015.5hPa Calm   3.0mph /  4.8km/h 76% 0.00in /  0mm
19:29 28.1 °F /  -2.2 °C 22.1 °F /  -5.5 °C 29.99in /  1015.5hPa SSW 1.0mph /  1.6km/h 3.0mph /  4.8km/h 78% 0.00in /  0mm
19:34 28.0 °F /  -2.2 °C 22.3 °F /  -5.4 °C 29.98in /  1015.1hPa Calm   3.0mph /  4.8km/h 79% 0.00in /  0mm
19:39 27.9 °F /  -2.3 °C 22.5 °F /  -5.3 °C 29.98in /  1015.1hPa Calm   2.0mph /  3.2km/h 80% 0.00in /  0mm
19:44 27.9 °F /  -2.3 °C 22.8 °F /  -5.1 °C 29.98in /  1015.1hPa Calm     81% 0.00in /  0mm
19:49 27.8 °F /  -2.3 °C 22.7 °F /  -5.2 °C 29.98in /  1015.1hPa Calm     81% 0.00in /  0mm
19:54 27.9 °F /  -2.3 °C 23.1 °F /  -4.9 °C 29.97in /  1014.8hPa SSW 1.0mph /  1.6km/h 3.0mph /  4.8km/h 82% 0.00in /  0mm
19:59 27.9 °F /  -2.3 °C 23.1 °F /  -4.9 °C 29.97in /  1014.8hPa Calm   3.0mph /  4.8km/h 82% 0.00in /  0mm
20:04 27.9 °F /  -2.3 °C 23.4 °F /  -4.8 °C 29.97in /  1014.8hPa Calm   2.0mph /  3.2km/h 83% 0.00in /  0mm
20:09 28.0 °F /  -2.2 °C 23.5 °F /  -4.7 °C 29.97in /  1014.8hPa Calm   2.0mph /  3.2km/h 83% 0.00in /  0mm
20:14 28.0 °F /  -2.2 °C 23.5 °F /  -4.7 °C 29.96in /  1014.4hPa Calm   2.0mph /  3.2km/h 83% 0.00in /  0mm
20:19 28.0 °F /  -2.2 °C 23.5 °F /  -4.7 °C 29.96in /  1014.4hPa Calm     83% 0.00in /  0mm
20:24 27.9 °F /  -2.3 °C 23.7 °F /  -4.6 °C 29.95in /  1014.1hPa Calm   1.0mph /  1.6km/h 84% 0.00in /  0mm
20:29 27.9 °F /  -2.3 °C 23.7 °F /  -4.6 °C 29.95in /  1014.1hPa Calm   1.0mph /  1.6km/h 84% 0.00in /  0mm
20:34 28.0 °F /  -2.2 °C 23.8 °F /  -4.6 °C 29.94in /  1013.8hPa Calm     84% 0.00in /  0mm
20:40 28.0 °F /  -2.2 °C 24.1 °F /  -4.4 °C 29.94in /  1013.8hPa Calm     85% 0.00in /  0mm
20:49 28.0 °F /  -2.2 °C 24.1 °F /  -4.4 °C 29.93in /  1013.4hPa Calm   2.0mph /  3.2km/h 85% 0.00in /  0mm
20:54 28.0 °F /  -2.2 °C 24.1 °F /  -4.4 °C 29.92in /  1013.1hPa Calm   2.0mph /  3.2km/h 85% 0.00in /  0mm
20:59 28.0 °F /  -2.2 °C 24.1 °F /  -4.4 °C 29.92in /  1013.1hPa Calm   2.0mph /  3.2km/h 85% 0.00in /  0mm
21:04 28.1 °F /  -2.2 °C 24.5 °F /  -4.2 °C 29.92in /  1013.1hPa Calm   2.0mph /  3.2km/h 86% 0.00in /  0mm
21:09 28.1 °F /  -2.2 °C 24.5 °F /  -4.2 °C 29.91in /  1012.8hPa Calm   2.0mph /  3.2km/h 86% 0.00in /  0mm
21:14 28.2 °F /  -2.1 °C 24.6 °F /  -4.1 °C 29.91in /  1012.8hPa Calm   1.0mph /  1.6km/h 86% 0.00in /  0mm
21:19 28.4 °F /  -2 °C 24.8 °F /  -4 °C 29.91in /  1012.8hPa SSW 1.0mph /  1.6km/h 3.0mph /  4.8km/h 86% 0.00in /  0mm
21:24 28.6 °F /  -1.9 °C 24.9 °F /  -3.9 °C 29.91in /  1012.8hPa Calm   3.0mph /  4.8km/h 86% 0.00in /  0mm
21:29 28.6 °F /  -1.9 °C 24.9 °F /  -3.9 °C 29.91in /  1012.8hPa Calm   1.0mph /  1.6km/h 86% 0.00in /  0mm
21:34 28.8 °F /  -1.8 °C 25.4 °F /  -3.7 °C 29.91in /  1012.8hPa SSW 1.0mph /  1.6km/h 4.0mph /  6.4km/h 87% 0.00in /  0mm
21:39 29.0 °F /  -1.7 °C 25.6 °F /  -3.6 °C 29.91in /  1012.8hPa SSW 1.0mph /  1.6km/h 5.0mph /  8km/h 87% 0.00in /  0mm
21:44 29.2 °F /  -1.6 °C 25.8 °F /  -3.4 °C 29.90in /  1012.4hPa SSW 1.0mph /  1.6km/h 6.0mph /  9.7km/h 87% 0.00in /  0mm
21:49 29.4 °F /  -1.4 °C 26.0 °F /  -3.3 °C 29.90in /  1012.4hPa SSW 1.0mph /  1.6km/h 6.0mph /  9.7km/h 87% 0.00in /  0mm
21:54 29.5 °F /  -1.4 °C 25.8 °F /  -3.4 °C 29.89in /  1012.1hPa SSW 2.0mph /  3.2km/h 6.0mph /  9.7km/h 86% 0.00in /  0mm
21:59 29.7 °F /  -1.3 °C 26.0 °F /  -3.3 °C 29.89in /  1012.1hPa SSW 3.0mph /  4.8km/h 7.0mph /  11.3km/h 86% 0.00in /  0mm
22:04 29.9 °F /  -1.2 °C 25.9 °F /  -3.4 °C 29.89in /  1012.1hPa SSW 4.0mph /  6.4km/h 7.0mph /  11.3km/h 85% 0.00in /  0mm
22:09 30.0 °F /  -1.1 °C 26.0 °F /  -3.3 °C 29.89in /  1012.1hPa SSW 3.0mph /  4.8km/h 7.0mph /  11.3km/h 85% 0.00in /  0mm
22:14 30.1 °F /  -1.1 °C 26.1 °F /  -3.3 °C 29.88in /  1011.7hPa SSW 1.0mph /  1.6km/h 7.0mph /  11.3km/h 85% 0.00in /  0mm
22:19 30.1 °F /  -1.1 °C 26.1 °F /  -3.3 °C 29.88in /  1011.7hPa SSW 1.0mph /  1.6km/h 7.0mph /  11.3km/h 85% 0.00in /  0mm
22:24 30.1 °F /  -1.1 °C 26.1 °F /  -3.3 °C 29.88in /  1011.7hPa South 3.0mph /  4.8km/h 8.0mph /  12.9km/h 85% 0.00in /  0mm
22:29 30.2 °F /  -1 °C 26.2 °F /  -3.2 °C 29.88in /  1011.7hPa South 3.0mph /  4.8km/h 8.0mph /  12.9km/h 85% 0.00in /  0mm
22:34 30.3 °F /  -0.9 °C 26.3 °F /  -3.2 °C 29.87in /  1011.4hPa SSW 3.0mph /  4.8km/h 8.0mph /  12.9km/h 85% 0.00in /  0mm
22:39 30.3 °F /  -0.9 °C 26.3 °F /  -3.2 °C 29.87in /  1011.4hPa South 4.0mph /  6.4km/h 9.0mph /  14.5km/h 85% 0.00in /  0mm
22:44 30.3 °F /  -0.9 °C 26.3 °F /  -3.2 °C 29.87in /  1011.4hPa South 3.0mph /  4.8km/h 9.0mph /  14.5km/h 85% 0.00in /  0mm
22:54 30.3 °F /  -0.9 °C 26.3 °F /  -3.2 °C 29.87in /  1011.4hPa South 5.0mph /  8km/h 8.0mph /  12.9km/h 85% 0.00in /  0mm
22:59 30.4 °F /  -0.9 °C 26.4 °F /  -3.1 °C 29.86in /  1011.1hPa South 5.0mph /  8km/h 9.0mph /  14.5km/h 85% 0.00in /  0mm
23:04 30.4 °F /  -0.9 °C 26.4 °F /  -3.1 °C 29.86in /  1011.1hPa SSW 3.0mph /  4.8km/h 9.0mph /  14.5km/h 85% 0.00in /  0mm
23:09 30.4 °F /  -0.9 °C 26.4 °F /  -3.1 °C 29.86in /  1011.1hPa South 4.0mph /  6.4km/h 10.0mph /  16.1km/h 85% 0.00in /  0mm
23:19 30.4 °F /  -0.9 °C 26.4 °F /  -3.1 °C 29.85in /  1010.7hPa SSW 4.0mph /  6.4km/h 9.0mph /  14.5km/h 85% 0.00in /  0mm
23:24 30.4 °F /  -0.9 °C 26.4 °F /  -3.1 °C 29.85in /  1010.7hPa South 4.0mph /  6.4km/h 8.0mph /  12.9km/h 85% 0.00in /  0mm
23:29 30.4 °F /  -0.9 °C 26.4 °F /  -3.1 °C 29.85in /  1010.7hPa South 5.0mph /  8km/h 8.0mph /  12.9km/h 85% 0.00in /  0mm
23:34 30.5 °F /  -0.8 °C 26.5 °F /  -3.1 °C 29.84in /  1010.4hPa South 4.0mph /  6.4km/h 11.0mph /  17.7km/h 85% 0.00in /  0mm
23:39 30.5 °F /  -0.8 °C 26.5 °F /  -3.1 °C 29.84in /  1010.4hPa South 6.0mph /  9.7km/h 11.0mph /  17.7km/h 85% 0.00in /  0mm
23:44 30.5 °F /  -0.8 °C 26.5 °F /  -3.1 °C 29.83in /  1010hPa South 5.0mph /  8km/h 9.0mph /  14.5km/h 85% 0.00in /  0mm
23:49 30.5 °F /  -0.8 °C 26.5 °F /  -3.1 °C 29.83in /  1010hPa South 3.0mph /  4.8km/h 9.0mph /  14.5km/h 85% 0.00in /  0mm
23:54 30.5 °F /  -0.8 °C 26.5 °F /  -3.1 °C 29.83in /  1010hPa South 5.0mph /  8km/h 14.0mph /  22.5km/h 85% 0.00in /  0mm
23:59 30.5 °F /  -0.8 °C 26.5 °F /  -3.1 °C 29.83in /  1010hPa South 4.0mph /  6.4km/h 14.0mph /  22.5km/h 85% 0.00in /  0mm
Westford Weather
Compliments of Weather Underground

 
 
Current Radar Loop:

Copyright © WestfordWeather.net 2007-2014. All rights reserved.